createdAt,value
2023-02-22T00:01:50.884Z,35.63
2023-02-22T00:05:58.209Z,35.80
2023-02-22T00:10:01.581Z,42.53
2023-02-22T00:14:08.053Z,38.37
2023-02-22T00:18:34.598Z,41.37
2023-02-22T00:22:37.787Z,40.47
2023-02-22T00:26:40.761Z,47.27
2023-02-22T00:30:45.953Z,42.00
2023-02-22T00:34:53.135Z,37.33
2023-02-22T00:38:56.307Z,47.10
2023-02-22T00:42:59.900Z,40.33
2023-02-22T00:47:04.773Z,40.53
2023-02-22T00:51:07.985Z,49.97
2023-02-22T00:55:17.641Z,46.23
2023-02-22T00:59:20.763Z,51.83
2023-02-22T01:03:26.028Z,58.10
2023-02-22T01:07:29.446Z,64.73
2023-02-22T01:11:34.197Z,64.20
2023-02-22T01:15:39.370Z,75.57
2023-02-22T01:19:44.463Z,79.30
2023-02-22T01:23:48.407Z,89.20
2023-02-22T01:27:52.465Z,78.13
2023-02-22T01:31:57.325Z,84.30
2023-02-22T01:36:02.031Z,75.70
2023-02-22T01:40:08.047Z,73.90
2023-02-22T01:44:23.483Z,70.30
2023-02-22T01:48:35.367Z,75.90
2023-02-22T01:52:39.978Z,76.43
2023-02-22T01:56:51.462Z,76.70
2023-02-22T02:00:57.548Z,69.03
2023-02-22T02:05:01.283Z,74.00
2023-02-22T02:09:11.149Z,74.10
2023-02-22T02:13:16.089Z,76.37
2023-02-22T02:17:23.373Z,66.57
2023-02-22T02:22:03.869Z,71.53
2023-02-22T02:26:34.173Z,77.67
2023-02-22T02:30:49.842Z,74.87
2023-02-22T02:35:02.803Z,69.80
2023-02-22T02:39:11.968Z,72.83
2023-02-22T02:43:19.454Z,68.70
2023-02-22T02:47:26.470Z,72.43
2023-02-22T02:51:38.174Z,73.00
2023-02-22T02:55:41.215Z,67.37
2023-02-22T02:59:44.267Z,72.20
2023-02-22T03:04:02.988Z,71.30
2023-02-22T03:08:13.862Z,68.50
2023-02-22T03:12:28.587Z,79.80
2023-02-22T03:16:41.003Z,76.33
2023-02-22T03:20:51.389Z,72.50
2023-02-22T03:25:07.021Z,68.73
2023-02-22T03:29:16.168Z,60.53
2023-02-22T03:33:28.745Z,56.93
2023-02-22T03:37:37.467Z,59.63
2023-02-22T03:41:48.520Z,65.37
2023-02-22T03:45:53.197Z,61.07
2023-02-22T03:50:01.966Z,60.53
2023-02-22T03:54:07.015Z,70.87
2023-02-22T03:58:16.660Z,61.73
2023-02-22T04:02:20.583Z,56.93
2023-02-22T04:06:23.779Z,62.43
2023-02-22T04:10:26.702Z,60.80
2023-02-22T04:14:31.527Z,66.10
2023-02-22T04:18:34.900Z,76.30
2023-02-22T04:22:38.725Z,61.90
2023-02-22T04:26:42.468Z,70.60
2023-02-22T04:30:47.069Z,64.40
2023-02-22T04:34:52.630Z,78.60
2023-02-22T04:38:55.938Z,69.27
2023-02-22T04:43:00.178Z,74.70
2023-02-22T04:47:06.109Z,76.47
2023-02-22T04:51:10.262Z,91.07
2023-02-22T04:55:17.189Z,72.53
2023-02-22T04:59:20.777Z,94.47
2023-02-22T05:03:31.759Z,78.83
2023-02-22T05:07:34.751Z,82.27
2023-02-22T05:11:37.765Z,91.60
2023-02-22T05:15:41.665Z,108.57
2023-02-22T05:19:47.632Z,101.83
2023-02-22T05:23:50.785Z,108.17
2023-02-22T05:27:55.452Z,87.77
2023-02-22T05:31:59.245Z,109.07
2023-02-22T05:36:03.693Z,105.47
2023-02-22T05:40:07.845Z,111.43
2023-02-22T05:44:15.267Z,117.00
2023-02-22T05:48:19.809Z,97.37
2023-02-22T05:52:30.451Z,115.47
2023-02-22T05:56:34.085Z,118.47
2023-02-22T06:00:37.999Z,111.83
2023-02-22T06:04:44.975Z,105.03
2023-02-22T06:08:49.644Z,96.63
2023-02-22T06:12:55.332Z,111.30
2023-02-22T06:16:59.207Z,99.30
2023-02-22T06:21:03.143Z,103.93
2023-02-22T06:25:09.140Z,105.07
2023-02-22T06:29:12.158Z,104.57
2023-02-22T06:33:16.045Z,120.37
2023-02-22T06:37:19.426Z,99.17
2023-02-22T06:41:24.489Z,95.27
2023-02-22T06:45:28.462Z,131.57
2023-02-22T06:49:31.398Z,123.87
2023-02-22T06:53:35.330Z,164.27
2023-02-22T06:57:40.260Z,140.93
2023-02-22T07:01:43.850Z,116.93
2023-02-22T07:05:46.825Z,132.77
2023-02-22T07:09:49.747Z,130.03
2023-02-22T07:13:55.473Z,110.53
2023-02-22T07:17:59.896Z,96.90
2023-02-22T07:22:02.781Z,102.53
2023-02-22T07:26:06.327Z,111.80
2023-02-22T07:30:17.608Z,110.27
2023-02-22T07:34:20.701Z,120.83
2023-02-22T07:38:23.680Z,109.93
2023-02-22T07:42:26.663Z,85.17
2023-02-22T07:46:31.012Z,84.53
2023-02-22T07:50:35.560Z,96.80
2023-02-22T07:54:39.414Z,86.30
2023-02-22T07:58:42.395Z,96.80
2023-02-22T08:02:48.830Z,86.53
2023-02-22T08:06:51.715Z,92.80
2023-02-22T08:10:54.719Z,82.20
2023-02-22T08:14:57.694Z,72.83
2023-02-22T08:19:02.110Z,91.57
2023-02-22T08:23:05.974Z,88.20
2023-02-22T08:27:09.308Z,85.40
2023-02-22T08:31:12.197Z,81.83
2023-02-22T08:35:18.159Z,82.93
2023-02-22T08:39:21.514Z,72.33
2023-02-22T08:43:25.513Z,70.90
2023-02-22T08:47:28.432Z,67.67
2023-02-22T08:51:35.823Z,53.23
2023-02-22T08:55:41.852Z,62.73
2023-02-22T08:59:44.753Z,60.50
2023-02-22T09:03:49.319Z,55.77
2023-02-22T09:07:53.722Z,62.70
2023-02-22T09:11:56.854Z,54.67
2023-02-22T09:15:59.831Z,65.90
2023-02-22T09:20:07.222Z,59.60
2023-02-22T09:24:12.059Z,72.27
2023-02-22T09:28:15.173Z,64.57
2023-02-22T09:32:19.103Z,66.70
2023-02-22T09:36:22.469Z,70.77
2023-02-22T09:40:30.641Z,76.77
2023-02-22T09:44:39.965Z,65.63
2023-02-22T09:48:57.911Z,64.27
2023-02-22T09:53:05.302Z,65.87
2023-02-22T09:57:16.490Z,60.23
2023-02-22T10:01:27.005Z,66.43
2023-02-22T10:05:37.468Z,61.73
2023-02-22T10:09:43.535Z,63.53
2023-02-22T10:14:01.610Z,61.77
2023-02-22T10:18:22.232Z,62.97
2023-02-22T10:22:40.870Z,54.00
2023-02-22T10:26:46.779Z,52.07
2023-02-22T10:30:56.689Z,61.90
2023-02-22T10:35:05.457Z,54.00
2023-02-22T10:39:20.958Z,50.37
2023-02-22T10:43:25.683Z,48.10
2023-02-22T10:47:30.839Z,50.17
2023-02-22T10:51:34.007Z,51.57
2023-02-22T10:55:37.725Z,48.97
2023-02-22T10:59:43.014Z,50.97
2023-02-22T11:03:58.352Z,46.93
2023-02-22T11:08:17.699Z,45.70
2023-02-22T11:12:28.615Z,44.83
2023-02-22T11:16:36.169Z,41.73
2023-02-22T11:20:40.894Z,42.93
2023-02-22T11:24:50.712Z,46.03
2023-02-22T11:28:56.278Z,47.47
2023-02-22T11:33:01.664Z,41.70
2023-02-22T11:37:30.597Z,41.93
2023-02-22T11:41:36.084Z,39.33
2023-02-22T11:45:49.897Z,44.10
2023-02-22T11:50:02.289Z,40.13
2023-02-22T11:54:31.546Z,45.30
2023-02-22T11:58:45.611Z,43.80
2023-02-22T12:03:19.513Z,42.03
2023-02-22T12:07:33.699Z,43.17
2023-02-22T12:11:51.341Z,46.23
2023-02-22T12:16:03.589Z,39.43
2023-02-22T12:20:16.361Z,45.27
2023-02-22T12:24:23.435Z,41.67
2023-02-22T12:28:37.735Z,44.53
2023-02-22T12:33:06.295Z,39.90
2023-02-22T12:37:25.543Z,43.60
2023-02-22T12:41:35.354Z,36.30
2023-02-22T12:45:46.352Z,37.30
2023-02-22T12:49:55.112Z,37.33
2023-02-22T12:54:06.438Z,34.43
2023-02-22T12:58:20.421Z,34.27
2023-02-22T13:02:29.749Z,32.10
2023-02-22T13:06:48.586Z,33.83
2023-02-22T13:11:04.409Z,30.13
2023-02-22T13:15:17.316Z,29.50
2023-02-22T13:19:34.811Z,29.20
2023-02-22T13:23:48.816Z,32.90
2023-02-22T13:27:56.267Z,30.07
2023-02-22T13:32:18.377Z,27.60
2023-02-22T13:36:38.448Z,27.27
2023-02-22T13:41:05.890Z,29.27
2023-02-22T13:45:44.963Z,28.67
2023-02-22T13:50:28.135Z,24.67
2023-02-22T13:54:42.337Z,27.60
2023-02-22T13:58:53.416Z,25.77
2023-02-22T14:03:03.434Z,24.70
2023-02-22T14:07:56.989Z,26.23
2023-02-22T14:12:01.540Z,25.23
2023-02-22T14:16:26.543Z,24.57
2023-02-22T14:20:35.125Z,25.17
2023-02-22T14:24:45.641Z,22.90
2023-02-22T14:28:56.237Z,24.17
2023-02-22T14:33:00.579Z,25.13
2023-02-22T14:37:07.874Z,24.53
2023-02-22T14:41:11.078Z,23.00
2023-02-22T14:45:24.804Z,24.30
2023-02-22T14:49:31.513Z,25.73
2023-02-22T14:53:39.299Z,26.43
2023-02-22T14:57:54.720Z,25.47
2023-02-22T15:06:35.319Z,23.70
2023-02-22T15:10:43.857Z,25.23
2023-02-22T15:14:49.684Z,23.13
2023-02-22T15:18:55.944Z,26.90
2023-02-22T15:23:01.383Z,23.67
2023-02-22T15:27:06.165Z,24.33
2023-02-22T15:31:24.955Z,28.13
2023-02-22T15:35:30.780Z,25.37
2023-02-22T15:39:43.678Z,21.60
2023-02-22T15:43:46.705Z,25.53
2023-02-22T15:47:50.936Z,26.30
2023-02-22T15:52:06.657Z,27.23
2023-02-22T15:56:15.256Z,26.23
2023-02-22T16:00:24.294Z,27.07
2023-02-22T16:04:29.792Z,22.77
2023-02-22T16:08:54.441Z,25.57
2023-02-22T16:13:11.143Z,29.10
2023-02-22T16:17:30.808Z,36.03
2023-02-22T16:21:53.451Z,32.10
2023-02-22T16:26:05.318Z,24.43
2023-02-22T16:30:25.641Z,25.47
2023-02-22T16:34:29.019Z,27.57
2023-02-22T16:38:38.349Z,26.30
2023-02-22T16:42:41.323Z,26.67
2023-02-22T16:46:45.767Z,25.13
2023-02-22T16:50:51.295Z,23.53
2023-02-22T16:54:55.553Z,23.67
2023-02-22T16:58:59.421Z,28.27
2023-02-22T17:03:05.518Z,27.13
2023-02-22T17:07:10.172Z,29.53
2023-02-22T17:11:15.816Z,27.43
2023-02-22T17:15:37.238Z,24.93
2023-02-22T17:19:42.814Z,27.33
2023-02-22T17:23:46.939Z,26.23
2023-02-22T17:27:50.184Z,26.57
2023-02-22T17:31:55.007Z,27.37
2023-02-22T17:36:02.139Z,23.30
2023-02-22T17:40:06.754Z,23.67
2023-02-22T17:44:11.784Z,25.77
2023-02-22T17:48:16.102Z,26.07
2023-02-22T17:52:20.755Z,27.87
2023-02-22T17:56:23.794Z,25.30
2023-02-22T18:00:34.287Z,24.10
2023-02-22T18:04:39.516Z,28.87
2023-02-22T18:08:43.984Z,32.43
2023-02-22T18:12:48.935Z,31.00
2023-02-22T18:16:52.307Z,34.83
2023-02-22T18:20:59.495Z,39.90
2023-02-22T18:25:04.345Z,38.50
2023-02-22T18:29:07.591Z,32.00
2023-02-22T18:33:11.992Z,32.53
2023-02-22T18:37:20.325Z,29.03
2023-02-22T18:41:26.349Z,28.87
2023-02-22T18:45:29.291Z,30.97
2023-02-22T18:49:41.993Z,33.43
2023-02-22T18:54:00.056Z,34.83
2023-02-22T18:58:05.941Z,32.10
2023-02-22T19:02:13.870Z,32.47
2023-02-22T19:06:19.165Z,35.77
2023-02-22T19:10:23.147Z,33.10
2023-02-22T19:14:27.791Z,35.07
2023-02-22T19:18:31.639Z,34.37
2023-02-22T19:22:34.768Z,35.30
2023-02-22T19:26:38.357Z,38.50
2023-02-22T19:30:42.960Z,36.10
2023-02-22T19:34:46.192Z,44.47
2023-02-22T19:38:50.274Z,35.97
2023-02-22T19:42:56.008Z,37.70
2023-02-22T19:47:01.086Z,39.93
2023-02-22T19:51:07.369Z,40.77
2023-02-22T19:55:13.466Z,42.17
2023-02-22T19:59:26.099Z,45.97
2023-02-22T20:03:34.973Z,43.40
2023-02-22T20:07:38.393Z,41.73
2023-02-22T20:11:41.287Z,38.87
2023-02-22T20:15:45.108Z,41.77
2023-02-22T20:19:50.402Z,40.87
2023-02-22T20:23:57.131Z,41.53
2023-02-22T20:28:00.699Z,45.33
2023-02-22T20:32:05.581Z,40.80
2023-02-22T20:36:11.201Z,42.73
2023-02-22T20:40:14.507Z,42.83
2023-02-22T20:44:19.524Z,44.13
2023-02-22T20:48:22.380Z,42.37
2023-02-22T20:52:27.333Z,39.27
2023-02-22T20:56:32.066Z,45.53
2023-02-22T21:00:35.374Z,50.03
2023-02-22T21:04:38.432Z,51.53
2023-02-22T21:08:44.459Z,55.53
2023-02-22T21:12:47.819Z,57.47
2023-02-22T21:16:52.629Z,59.60
2023-02-22T21:20:55.689Z,60.90
2023-02-22T21:24:59.990Z,59.20
2023-02-22T21:29:05.779Z,60.13
2023-02-22T21:33:09.028Z,58.87
2023-02-22T21:37:18.016Z,56.80
2023-02-22T21:41:27.380Z,57.97
2023-02-22T21:45:31.794Z,60.03
2023-02-22T21:49:46.022Z,58.47
2023-02-22T21:53:53.031Z,64.73
2023-02-22T21:57:57.706Z,66.80
2023-02-22T22:02:00.888Z,66.57
2023-02-22T22:06:10.887Z,64.53
2023-02-22T22:10:17.940Z,66.87
2023-02-22T22:14:24.205Z,62.60
2023-02-22T22:18:27.624Z,65.23
2023-02-22T22:22:30.577Z,65.33
2023-02-22T22:26:33.819Z,62.17
2023-02-22T22:30:39.220Z,66.57
2023-02-22T22:34:43.508Z,63.47
2023-02-22T22:38:49.129Z,74.17
2023-02-22T22:42:54.787Z,70.00
2023-02-22T22:46:59.162Z,76.73
2023-02-22T22:51:06.447Z,64.93
2023-02-22T22:55:11.999Z,72.30
2023-02-22T22:59:15.257Z,72.17
2023-02-22T23:03:19.594Z,77.50
2023-02-22T23:07:22.588Z,80.87
2023-02-22T23:11:25.609Z,72.40
2023-02-22T23:15:29.460Z,70.43
2023-02-22T23:19:35.919Z,80.53
2023-02-22T23:23:38.995Z,81.80
2023-02-22T23:27:42.031Z,71.83
2023-02-22T23:31:47.980Z,74.17
2023-02-22T23:35:53.468Z,81.37
2023-02-22T23:39:56.677Z,87.70
2023-02-22T23:44:00.351Z,84.90
2023-02-22T23:48:04.541Z,68.17
2023-02-22T23:52:13.294Z,70.30
2023-02-22T23:56:18.762Z,78.63
